Аэропорт
Владивосток (UHWW)

 UHWW / VVO
ЗЦ Хабаровск
Хабаровск (UHHH)
Хабаровск (UHHH)
 43.39900, 132.14800  / 46 ft

 UHWW 211000Z VRB01MPS 9999 FEW033 18/12 Q1011 R25L/0///70 NOSIG RMK QFE757
 TAF AMD UHWW 210400Z 2104/2203 35003MPS 9999 BKN030 TEMPO 2104/2107 34007MPS SCT020CB BECMG 2107/2109 22003MPS
UHWW_aip_1709
показать схемы
Название сценария Тип сценария Flight Simulator 9 Flight Simulator X Prepar3D v2 Prepar3D v3 xPlane
UHWW, Vladivostok 1.0.0 X-Flight бесплатный
UHWW, Vladivostok 2017 v 1.2 бесплатный
uhww-scenery-fs9-1408 бесплатный
uhww-scenery-fsx-1304 бесплатный
uhww-scenery-p3d-1502 бесплатный



2017 © VATRUS division